ADDS METAR Data INFO
IDs: Format: Raw Decoded Include TAF

Data at: 1927 UTC 19 Jul 2018

KAUH 191915Z AUTO 32007KT 10SM CLR 29/18 A2988 RMK AO2 T02870178
KAUH 191855Z AUTO 34006KT 10SM CLR 29/18 A2987 RMK AO2 LTG DSNT S T02850179
KAUH 191835Z AUTO 34007KT 10SM CLR 29/18 A2987 RMK AO2 T02850176
KAUH 191815Z AUTO 34005KT 10SM CLR 28/18 A2987 RMK AO2 T02800175
KAUH 191755Z AUTO 35008KT 10SM CLR 28/18 A2988 RMK AO2 T02760184 10276 20195
KAUH 191735Z AUTO 35012G15KT 10SM CLR 28/19 A2988 RMK AO2 T02750186
KAUH 191715Z AUTO 33008KT 10SM CLR 27/19 A2989 RMK AO2 T02700188
KAUH 191655Z AUTO 34011G16KT 10SM CLR 27/18 A2990 RMK AO2 T02700182
KAUH 191635Z AUTO 34011KT 10SM CLR 27/18 A2990 RMK AO2 LTG DSNT S AND SW T02700180
KAUH 191615Z AUTO 32010KT 10SM CLR 27/17 A2990 RMK AO2 T02670171
KAUH 191555Z AUTO 33009KT 10SM CLR 27/19 A2989 RMK AO2 T02650193
KAUH 191535Z AUTO 33010KT 10SM CLR 26/21 A2990 RMK AO2 T02600208
KAUH 191515Z AUTO 33009KT 10SM CLR 26/21 A2990 RMK AO2 T02550210
KAUH 191455Z AUTO 32013G17KT 10SM CLR 26/21 A2990 RMK AO2 T02550210
KAUH 191435Z AUTO 31010G14KT 10SM CLR 25/22 A2990 RMK AO2 T02500216
KAUH 191415Z AUTO 31009KT 10SM CLR 24/22 A2989 RMK AO2 T02440220
KAUH 191355Z AUTO 28006KT 10SM CLR 24/22 A2989 RMK AO2 LTG DSNT E T02360221
KAUH 191335Z AUTO 27004KT 10SM CLR 23/22 A2989 RMK AO2 T02270217
KAUH 191315Z AUTO 24004KT 7SM CLR 22/22 A2988 RMK AO2 T02160216
KAUH 191255Z AUTO 24003KT 5SM BR CLR 21/21 A2988 RMK AO2 T02110211
KAUH 191235Z AUTO 00000KT 4SM BR CLR 21/21 A2988 RMK AO2 T02050205
KAUH 191215Z AUTO 21003KT 3SM BR CLR 20/20 A2987 RMK AO2 T01960196
KAUH 191155Z AUTO 20004KT 4SM BR CLR 20/20 A2987 RMK AO2 T01950195 10224 20191
KAUH 191135Z AUTO 00000KT 3SM BR CLR 19/19 A2988 RMK AO2 T01920192
KAUH 191115Z AUTO 00000KT 4SM BR SCT060 19/19 A2988 RMK AO2 T01940194
KAUH 191055Z AUTO 00000KT 7SM SCT060 20/20 A2988 RMK AO2 T02010201
KAUH 191035Z AUTO 19003KT 10SM CLR 20/20 A2987 RMK AO2 T02020202
KAUH 191015Z AUTO 18004KT 10SM CLR 20/20 A2987 RMK AO2 T02010201
KAUH 190955Z AUTO 16003KT 10SM CLR 20/20 A2988 RMK AO2 T01980198
KAUH 190935Z AUTO 14003KT 10SM CLR 20/20 A2988 RMK AO2 T01970197
KAUH 190915Z AUTO 15005KT 10SM CLR 20/20 A2988 RMK AO2 T01980198
KAUH 190855Z AUTO 11004KT 10SM CLR 20/20 A2988 RMK AO2 LTG DSNT NE T01980198
KAUH 190835Z AUTO 00000KT 10SM CLR 20/20 A2989 RMK AO2 LTG DSNT N T02000200
KAUH 190815Z AUTO 14003KT 10SM CLR 21/21 A2989 RMK AO2 LTG DSNT SE T02080206
KAUH 190755Z AUTO 07004KT 10SM CLR 21/21 A2990 RMK AO2 LTG DSNT E T02110207
KAUH 190735Z AUTO 12005KT 10SM CLR 22/21 A2990 RMK AO2 LTG DSNT E AND SE T02150212
KAUH 190715Z AUTO 21013G18KT 10SM VCTS SCT011 22/21 A2989 RMK AO2 LTG DSNT E AND SE T02190209
KAUH 190655Z AUTO 01014G19KT 10SM VCTS CLR 22/22 A2993 RMK AO2 LTG DSNT NE AND E T02160215
KAUH 190635Z AUTO 21010KT 10SM TS CLR 22/22 A2988 RMK AO2 LTG DSNT N AND NE T02200216
KAUH 190615Z AUTO 20011KT 10SM CLR 22/22 A2987 RMK AO2 LTG DSNT N AND NE T02200216
KAUH 190555Z AUTO 20009G14KT 10SM CLR 22/22 A2988 RMK AO2 LTG DSNT N AND NE T02230217 10274 20223 402770180
KAUH 190535Z AUTO 18009G16KT 10SM CLR 23/22 A2988 RMK AO2 LTG DSNT N T02280218
KAUH 190515Z AUTO 18010KT 10SM CLR 23/22 A2989 RMK AO2 LTG DSNT N T02300218
KAUH 190455Z AUTO 18010KT 10SM CLR 23/22 A2990 RMK AO2 LTG DSNT SW T02330220
KAUH 190435Z AUTO 18007KT 10SM CLR 23/22 A2991 RMK AO2 LTG DSNT SW AND W T02320220
KAUH 190415Z AUTO 17009KT 10SM -RA SCT055 SCT065 SCT110 24/22 A2992 RMK AO2 LTG DSNT W T02350221
KAUH 190355Z AUTO 16005KT 10SM SCT046 SCT070 SCT075 24/22 A2994 RMK AO2 LTG DSNT SW AND W T02350221
KAUH 190335Z AUTO 14009KT 10SM BKN048 OVC070 24/22 A2993 RMK AO2 LTG DSNT W T02350221
KAUH 190315Z AUTO 11006KT 10SM OVC050 23/22 A2993 RMK AO2 LTG DSNT N AND NW T02330222
KAUH 190255Z AUTO 13007KT 10SM BKN050 23/22 A2991 RMK AO2 LTG DSNT W AND NW T02330222
KAUH 190235Z AUTO 13007KT 10SM BKN050 23/22 A2990 RMK AO2 LTG DSNT NW T02340222
KAUH 190215Z AUTO 14006KT 10SM SCT050 24/22 A2991 RMK AO2 T02360224
KAUH 190155Z AUTO 14007KT 10SM CLR 24/23 A2989 RMK AO2 LTG DSNT N T02390225
KAUH 190135Z AUTO 13008KT 10SM CLR 24/23 A2990 RMK AO2 T02440225
KAUH 190115Z AUTO 14007KT 10SM CLR 25/23 A2991 RMK AO2 T02460225
KAUH 190055Z AUTO 15007KT 10SM SCT028 26/23 A2992 RMK AO2 T02560225
KAUH 190035Z AUTO 15007KT 10SM SCT026 SCT031 27/23 A2992 RMK AO2 T02660230
KAUH 190015Z AUTO 16007KT 10SM SCT026 27/23 A2993 RMK AO2 T02700227
KAUH 182355Z AUTO 15007KT 10SM SCT023 SCT028 BKN049 27/23 A2993 RMK AO2 T02740232 10277 20246
KAUH 182335Z AUTO 14006KT 10SM SCT028 BKN033 BKN043 26/23 A2993 RMK AO2 T02640232
KAUH 182315Z AUTO 14008KT 10SM SCT030 SCT050 27/23 A2993 RMK AO2 LTG DSNT NW T02670228
KAUH 182255Z AUTO 15008KT 10SM SCT030 SCT042 BKN055 27/23 A2993 RMK AO2 T02740225
KAUH 182235Z AUTO 16007KT 10SM BKN030 BKN036 OVC050 27/22 A2995 RMK AO2 T02690222
KAUH 182215Z AUTO 15007KT 10SM SCT030 BKN036 BKN047 27/22 A2996 RMK AO2 T02670224
KAUH 182155Z AUTO 16008KT 10SM BKN030 BKN038 BKN049 27/22 A2997 RMK AO2 T02710224
KAUH 182135Z AUTO 11005KT 10SM BKN030 BKN039 BKN048 27/22 A2997 RMK AO2 T02650224
KAUH 182115Z AUTO 12006KT 10SM SCT027 SCT034 SCT042 27/23 A2998 RMK AO2 T02690227
KAUH 182055Z AUTO 14007KT 10SM SCT027 SCT032 SCT060 28/23 A2998 RMK AO2 T02770226
KAUH 182035Z AUTO 13006KT 10SM SCT028 SCT049 SCT060 27/22 A2999 RMK AO2 T02670222
KAUH 182015Z AUTO 15005KT 10SM BKN024 BKN044 OVC060 27/23 A2999 RMK AO2 T02650225
KAUH 181955Z AUTO 12004KT 10SM SCT024 BKN035 OVC046 26/22 A3000 RMK AO2 T02620221
KAUH 181935Z AUTO 11005KT 10SM SCT022 SCT032 OVC043 27/22 A3000 RMK AO2 T02650222
KAUH 181915Z AUTO 13004KT 10SM BKN020 BKN028 27/23 A3000 RMK AO2 T02660226
KAUH 181855Z AUTO 14004KT 10SM BKN020 27/23 A3000 RMK AO2 T02660226
KAUH 181835Z AUTO 13006KT 10SM BKN018 26/22 A3001 RMK AO2 T02580223
KAUH 181815Z AUTO 12007KT 10SM BKN016 25/22 A3001 RMK AO2 T02510222
KAUH 181755Z AUTO 14008KT 10SM OVC014 25/22 A3001 RMK AO2 T02500221 10250 20185
KAUH 181735Z AUTO 15010KT 10SM OVC012 25/22 A3001 RMK AO2 T02450222
KAUH 181715Z AUTO 13010KT 10SM OVC012 24/22 A3001 RMK AO2 T02350216
KAUH 181655Z AUTO 13010KT 7SM OVC010 23/22 A3002 RMK AO2 T02260215
KAUH 181635Z AUTO 14007KT 7SM OVC008 22/22 A3004 RMK AO2 T02210219
KAUH 181615Z AUTO 13005KT 7SM OVC008 21/21 A3003 RMK AO2 T02100210
KAUH 181555Z AUTO 15006KT 7SM OVC006 21/21 A3004 RMK AO2 T02050205
KAUH 181535Z AUTO 14008KT 5SM BR OVC004 20/20 A3003 RMK AO2 T02020202
KAUH 181515Z AUTO 13006KT 4SM BR OVC004 20/20 A3005 RMK AO2 T01990199
KAUH 181455Z AUTO 12007KT 3SM BR OVC004 20/20 A3005 RMK AO2 T01960196
KAUH 181435Z AUTO 13004KT 4SM BR OVC004 19/19 A3007 RMK AO2 T01930193
KAUH 181415Z AUTO 09004KT 4SM BR OVC004 20/20 A3007 RMK AO2 T01950195
KAUH 181355Z AUTO 07003KT 5SM BR OVC004 19/19 A3007 RMK AO2 LTG DSNT SW T01920192
KAUH 181335Z AUTO 00000KT 4SM BR OVC002 19/19 A3008 RMK AO2 T01900190
KAUH 181315Z AUTO 00000KT 2 1/2SM BR OVC002 19/19 A3009 RMK AO2 T01880188
KAUH 181255Z AUTO 00000KT 1SM BR OVC002 19/19 A3009 RMK AO2 T01870187
KAUH 181235Z AUTO 00000KT 1/2SM FG OVC002 19/19 A3008 RMK AO2 T01860186
KAUH 181215Z AUTO 00000KT M1/4SM FG OVC002 19/19 A3009 RMK AO2 T01850185
KAUH 181155Z AUTO 00000KT M1/4SM FG OVC002 19/19 A3009 RMK AO2 70159 T01860186 10192 20180
KAUH 181135Z AUTO 00000KT 1/4SM FG OVC002 19/19 A3009 RMK AO2 T01860186
KAUH 181115Z AUTO 00000KT 1/4SM FG OVC002 19/19 A3008 RMK AO2 T01850185
KAUH 181055Z AUTO 00000KT 1/4SM FG OVC002 19/19 A3007 RMK AO2 T01850185
KAUH 181035Z AUTO 00000KT 1/4SM FG OVC002 19/19 A3007 RMK AO2 T01850185
KAUH 181015Z AUTO 00000KT 1/4SM FG OVC002 19/19 A3006 RMK AO2 T01850185
KAUH 180955Z AUTO 12004KT 1/4SM FG OVC002 19/19 A3006 RMK AO2 T01850185
KAUH 180935Z AUTO 12003KT 1/4SM FG OVC002 18/18 A3006 RMK AO2 T01840184
KAUH 180915Z AUTO 11004KT 1 3/4SM BR OVC002 18/18 A3007 RMK AO2 T01810181
KAUH 180855Z AUTO 00000KT 2SM BR OVC002 18/18 A3007 RMK AO2 T01800180
KAUH 180835Z AUTO 00000KT 2 1/2SM BR SCT002 18/18 A3008 RMK AO2 T01800180
KAUH 180815Z AUTO 11003KT 2 1/2SM BR CLR 18/18 A3007 RMK AO2 T01820182
KAUH 180755Z AUTO 00000KT 2 1/2SM BR CLR 19/19 A3007 RMK AO2 T01850185
KAUH 180735Z AUTO 12004KT 3SM BR SCT002 19/19 A3008 RMK AO2 T01850185